sensor_id;sensor_type;location;lat;lon;timestamp;pressure;altitude;pressure_sealevel;temperature;humidity
26487;BME280;14425;56.136;40.360;2023-06-22T00:01:16;99861.94;;;10.32;88.14
26487;BME280;14425;56.136;40.360;2023-06-22T00:03:41;99871.09;;;10.25;88.41
26487;BME280;14425;56.136;40.360;2023-06-22T00:16:42;99875.97;;;10.39;88.21
26487;BME280;14425;56.136;40.360;2023-06-22T00:19:08;99874.47;;;10.23;87.01
26487;BME280;14425;56.136;40.360;2023-06-22T00:25:25;99879.16;;;10.12;89.96
26487;BME280;14425;56.136;40.360;2023-06-22T00:27:51;99880.47;;;10.02;88.54
26487;BME280;14425;56.136;40.360;2023-06-22T00:30:17;99880.28;;;9.97;83.79
26487;BME280;14425;56.136;40.360;2023-06-22T00:32:43;99880.28;;;9.97;85.88
26487;BME280;14425;56.136;40.360;2023-06-22T00:35:09;99873.88;;;10.09;85.08
26487;BME280;14425;56.136;40.360;2023-06-22T00:37:36;99878.22;;;10.10;82.51
26487;BME280;14425;56.136;40.360;2023-06-22T00:40:02;99876.44;;;10.09;80.69
26487;BME280;14425;56.136;40.360;2023-06-22T00:42:30;99877.91;;;10.02;78.02
26487;BME280;14425;56.136;40.360;2023-06-22T00:44:55;99875.38;;;10.04;79.67
26487;BME280;14425;56.136;40.360;2023-06-22T00:47:21;99878.78;;;10.03;77.68
26487;BME280;14425;56.136;40.360;2023-06-22T00:49:48;99880.53;;;10.04;78.29
26487;BME280;14425;56.136;40.360;2023-06-22T00:52:17;99865.34;;;10.10;76.70
26487;BME280;14425;56.136;40.360;2023-06-22T00:54:47;99869.91;;;10.17;74.48
26487;BME280;14425;56.136;40.360;2023-06-22T01:01:16;99873.75;;;10.06;73.56
26487;BME280;14425;56.136;40.360;2023-06-22T01:03:42;99863.19;;;10.21;73.65
26487;BME280;14425;56.136;40.360;2023-06-22T01:06:10;99863.03;;;10.16;73.69
26487;BME280;14425;56.136;40.360;2023-06-22T01:08:51;99862.31;;;10.20;73.00
26487;BME280;14425;56.136;40.360;2023-06-22T01:11:35;99856.09;;;10.15;73.18
26487;BME280;14425;56.136;40.360;2023-06-22T01:14:24;99859.28;;;10.09;72.41
26487;BME280;14425;56.136;40.360;2023-06-22T01:16:51;99868.97;;;10.15;70.98
26487;BME280;14425;56.136;40.360;2023-06-22T01:19:35;99863.94;;;10.18;70.75
26487;BME280;14425;56.136;40.360;2023-06-22T01:22:02;99875.59;;;10.29;70.68
26487;BME280;14425;56.136;40.360;2023-06-22T01:24:38;99872.31;;;10.33;68.94
26487;BME280;14425;56.136;40.360;2023-06-22T01:29:51;99867.28;;;10.37;68.34
26487;BME280;14425;56.136;40.360;2023-06-22T01:32:18;99867.28;;;10.37;67.85
26487;BME280;14425;56.136;40.360;2023-06-22T01:34:45;99867.28;;;10.37;69.26
26487;BME280;14425;56.136;40.360;2023-06-22T01:37:13;99869.00;;;10.36;68.06
26487;BME280;14425;56.136;40.360;2023-06-22T01:39:39;99863.25;;;10.43;69.46
26487;BME280;14425;56.136;40.360;2023-06-22T01:42:05;99865.78;;;10.42;67.20
26487;BME280;14425;56.136;40.360;2023-06-22T01:44:31;99859.81;;;10.43;67.22
26487;BME280;14425;56.136;40.360;2023-06-22T01:46:58;99853.75;;;10.42;67.19
26487;BME280;14425;56.136;40.360;2023-06-22T01:49:24;99857.44;;;10.49;67.89
26487;BME280;14425;56.136;40.360;2023-06-22T01:51:50;99855.59;;;10.45;67.12
26487;BME280;14425;56.136;40.360;2023-06-22T01:54:16;99855.59;;;10.45;66.74
26487;BME280;14425;56.136;40.360;2023-06-22T01:56:42;99866.72;;;10.44;67.02
26487;BME280;14425;56.136;40.360;2023-06-22T02:02:06;99877.34;;;10.51;65.63
26487;BME280;14425;56.136;40.360;2023-06-22T02:04:40;99873.06;;;10.52;67.29
26487;BME280;14425;56.136;40.360;2023-06-22T02:07:13;99869.94;;;10.61;66.47
26487;BME280;14425;56.136;40.360;2023-06-22T02:09:41;99875.34;;;10.67;66.74
26487;BME280;14425;56.136;40.360;2023-06-22T02:12:11;99881.50;;;10.70;65.50
26487;BME280;14425;56.136;40.360;2023-06-22T02:14:39;99868.66;;;10.72;64.45
26487;BME280;14425;56.136;40.360;2023-06-22T02:17:05;99870.75;;;10.82;63.71
26487;BME280;14425;56.136;40.360;2023-06-22T02:19:36;99875.00;;;10.80;64.03
26487;BME280;14425;56.136;40.360;2023-06-22T02:22:03;99871.72;;;10.84;61.80
26487;BME280;14425;56.136;40.360;2023-06-22T02:24:29;99870.94;;;10.87;63.16
26487;BME280;14425;56.136;40.360;2023-06-22T02:27:01;99862.28;;;10.85;62.89
26487;BME280;14425;56.136;40.360;2023-06-22T02:29:27;99868.59;;;10.93;63.21
26487;BME280;14425;56.136;40.360;2023-06-22T02:31:53;99859.28;;;10.97;63.81
26487;BME280;14425;56.136;40.360;2023-06-22T02:34:19;99862.69;;;10.96;61.71
26487;BME280;14425;56.136;40.360;2023-06-22T02:36:46;99857.47;;;10.94;61.44
26487;BME280;14425;56.136;40.360;2023-06-22T02:39:20;99859.44;;;11.01;62.16
26487;BME280;14425;56.136;40.360;2023-06-22T02:41:54;99871.41;;;10.99;61.89
26487;BME280;14425;56.136;40.360;2023-06-22T02:44:20;99865.47;;;11.02;61.22
26487;BME280;14425;56.136;40.360;2023-06-22T02:46:47;99870.09;;;11.10;61.14
26487;BME280;14425;56.136;40.360;2023-06-22T02:49:13;99865.00;;;11.12;61.56
26487;BME280;14425;56.136;40.360;2023-06-22T02:51:48;99869.34;;;11.13;61.37
26487;BME280;14425;56.136;40.360;2023-06-22T02:54:13;99882.25;;;11.13;60.33
26487;BME280;14425;56.136;40.360;2023-06-22T02:56:39;99874.78;;;11.21;60.17
26487;BME280;14425;56.136;40.360;2023-06-22T02:59:06;99875.00;;;11.27;60.29
26487;BME280;14425;56.136;40.360;2023-06-22T03:01:32;99874.41;;;11.34;60.68
26487;BME280;14425;56.136;40.360;2023-06-22T03:04:03;99871.81;;;11.34;60.39
26487;BME280;14425;56.136;40.360;2023-06-22T03:06:30;99873.56;;;11.35;59.89
26487;BME280;14425;56.136;40.360;2023-06-22T03:08:59;99869.41;;;11.39;59.82
26487;BME280;14425;56.136;40.360;2023-06-22T03:11:25;99862.47;;;11.38;58.77
26487;BME280;14425;56.136;40.360;2023-06-22T03:13:50;99857.97;;;11.32;59.80
26487;BME280;14425;56.136;40.360;2023-06-22T03:16:17;99855.28;;;11.29;59.71
26487;BME280;14425;56.136;40.360;2023-06-22T03:18:43;99859.72;;;11.33;59.80
26487;BME280;14425;56.136;40.360;2023-06-22T03:21:09;99851.94;;;11.32;59.31
26487;BME280;14425;56.136;40.360;2023-06-22T03:23:34;99857.03;;;11.30;58.78
26487;BME280;14425;56.136;40.360;2023-06-22T03:26:00;99849.28;;;11.30;58.50
26487;BME280;14425;56.136;40.360;2023-06-22T03:28:26;99847.50;;;11.27;59.36
26487;BME280;14425;56.136;40.360;2023-06-22T03:30:51;99852.72;;;11.29;59.33
26487;BME280;14425;56.136;40.360;2023-06-22T03:33:17;99855.38;;;11.32;58.88
26487;BME280;14425;56.136;40.360;2023-06-22T03:35:43;99846.19;;;11.39;59.12
26487;BME280;14425;56.136;40.360;2023-06-22T03:38:08;99852.03;;;11.35;57.98
26487;BME280;14425;56.136;40.360;2023-06-22T03:40:34;99858.91;;;11.34;59.35
26487;BME280;14425;56.136;40.360;2023-06-22T03:42:59;99864.13;;;11.36;58.56
26487;BME280;14425;56.136;40.360;2023-06-22T03:45:25;99868.50;;;11.38;59.76
26487;BME280;14425;56.136;40.360;2023-06-22T03:47:50;99870.53;;;11.47;58.86
26487;BME280;14425;56.136;40.360;2023-06-22T03:50:16;99865.66;;;11.55;59.38
26487;BME280;14425;56.136;40.360;2023-06-22T03:52:41;99864.31;;;11.66;57.82
26487;BME280;14425;56.136;40.360;2023-06-22T03:55:07;99865.41;;;11.73;57.68
26487;BME280;14425;56.136;40.360;2023-06-22T03:57:33;99868.22;;;11.79;57.51
26487;BME280;14425;56.136;40.360;2023-06-22T04:00:01;99859.56;;;11.78;56.79
26487;BME280;14425;56.136;40.360;2023-06-22T04:02:32;99862.66;;;11.92;56.81
26487;BME280;14425;56.136;40.360;2023-06-22T04:04:57;99861.75;;;11.92;57.45
26487;BME280;14425;56.136;40.360;2023-06-22T04:07:23;99868.38;;;12.09;57.53
26487;BME280;14425;56.136;40.360;2023-06-22T04:09:48;99868.91;;;11.99;56.82
26487;BME280;14425;56.136;40.360;2023-06-22T04:12:14;99858.69;;;12.02;56.68
26487;BME280;14425;56.136;40.360;2023-06-22T04:14:39;99863.84;;;12.02;56.32
26487;BME280;14425;56.136;40.360;2023-06-22T04:17:05;99860.91;;;12.18;56.51
26487;BME280;14425;56.136;40.360;2023-06-22T04:19:30;99859.44;;;12.27;56.08
26487;BME280;14425;56.136;40.360;2023-06-22T04:21:56;99868.78;;;12.22;56.44
26487;BME280;14425;56.136;40.360;2023-06-22T04:24:22;99868.97;;;12.28;55.91
26487;BME280;14425;56.136;40.360;2023-06-22T04:26:47;99880.97;;;12.26;56.13
26487;BME280;14425;56.136;40.360;2023-06-22T04:29:13;99876.44;;;12.46;55.91
26487;BME280;14425;56.136;40.360;2023-06-22T04:31:39;99867.63;;;12.97;55.33
26487;BME280;14425;56.136;40.360;2023-06-22T04:34:06;99879.72;;;12.98;54.18
26487;BME280;14425;56.136;40.360;2023-06-22T04:36:36;99870.81;;;13.17;54.76
26487;BME280;14425;56.136;40.360;2023-06-22T04:39:08;99877.81;;;13.21;53.28
26487;BME280;14425;56.136;40.360;2023-06-22T04:41:36;99879.31;;;13.43;53.11
26487;BME280;14425;56.136;40.360;2023-06-22T04:44:11;99879.72;;;13.57;52.99
26487;BME280;14425;56.136;40.360;2023-06-22T04:46:37;99889.63;;;13.40;52.01
26487;BME280;14425;56.136;40.360;2023-06-22T04:49:06;99870.06;;;13.53;52.33
26487;BME280;14425;56.136;40.360;2023-06-22T04:51:37;99871.03;;;13.55;51.98
26487;BME280;14425;56.136;40.360;2023-06-22T04:54:03;99865.66;;;13.82;52.59
26487;BME280;14425;56.136;40.360;2023-06-22T04:56:31;99853.97;;;13.64;52.05
26487;BME280;14425;56.136;40.360;2023-06-22T04:58:57;99854.56;;;13.88;51.89
26487;BME280;14425;56.136;40.360;2023-06-22T05:01:23;99848.69;;;13.93;52.50
26487;BME280;14425;56.136;40.360;2023-06-22T05:03:49;99850.25;;;13.86;52.59
26487;BME280;14425;56.136;40.360;2023-06-22T05:06:15;99853.69;;;13.87;52.77
26487;BME280;14425;56.136;40.360;2023-06-22T05:08:40;99847.22;;;13.70;53.35
26487;BME280;14425;56.136;40.360;2023-06-22T05:11:06;99844.91;;;13.80;53.64
26487;BME280;14425;56.136;40.360;2023-06-22T05:13:34;99852.47;;;13.73;54.16
26487;BME280;14425;56.136;40.360;2023-06-22T05:15:59;99847.00;;;13.62;55.59
26487;BME280;14425;56.136;40.360;2023-06-22T05:18:31;99849.72;;;13.66;56.15
26487;BME280;14425;56.136;40.360;2023-06-22T05:20:58;99849.63;;;13.97;56.27
26487;BME280;14425;56.136;40.360;2023-06-22T05:23:24;99844.09;;;14.18;56.33
26487;BME280;14425;56.136;40.360;2023-06-22T05:25:51;99854.84;;;14.33;56.21
26487;BME280;14425;56.136;40.360;2023-06-22T05:28:17;99849.31;;;14.56;55.83
26487;BME280;14425;56.136;40.360;2023-06-22T05:30:42;99837.88;;;14.48;56.83
26487;BME280;14425;56.136;40.360;2023-06-22T05:33:08;99837.16;;;14.93;56.72
26487;BME280;14425;56.136;40.360;2023-06-22T05:35:33;99824.41;;;15.05;55.96
26487;BME280;14425;56.136;40.360;2023-06-22T05:37:59;99834.69;;;14.99;55.71
26487;BME280;14425;56.136;40.360;2023-06-22T05:40:24;99828.94;;;14.73;56.60
26487;BME280;14425;56.136;40.360;2023-06-22T05:42:50;99832.97;;;14.60;57.55
26487;BME280;14425;56.136;40.360;2023-06-22T05:45:15;99828.50;;;14.54;57.88
26487;BME280;14425;56.136;40.360;2023-06-22T05:47:41;99834.25;;;14.42;58.91
26487;BME280;14425;56.136;40.360;2023-06-22T05:50:07;99835.50;;;14.98;57.60
26487;BME280;14425;56.136;40.360;2023-06-22T05:52:34;99839.31;;;15.15;56.34
26487;BME280;14425;56.136;40.360;2023-06-22T05:55:01;99834.66;;;14.98;57.22
26487;BME280;14425;56.136;40.360;2023-06-22T05:57:30;99841.41;;;14.51;58.14
26487;BME280;14425;56.136;40.360;2023-06-22T05:59:55;99831.13;;;14.56;58.95
26487;BME280;14425;56.136;40.360;2023-06-22T06:02:21;99833.25;;;14.74;58.98
26487;BME280;14425;56.136;40.360;2023-06-22T06:04:46;99837.59;;;14.73;57.00
26487;BME280;14425;56.136;40.360;2023-06-22T06:07:12;99832.91;;;14.98;55.41
26487;BME280;14425;56.136;40.360;2023-06-22T06:09:37;99836.41;;;15.00;55.07
26487;BME280;14425;56.136;40.360;2023-06-22T06:12:03;99829.94;;;15.24;54.77
26487;BME280;14425;56.136;40.360;2023-06-22T06:14:29;99833.97;;;15.53;52.92
26487;BME280;14425;56.136;40.360;2023-06-22T06:16:54;99834.09;;;15.60;53.21
26487;BME280;14425;56.136;40.360;2023-06-22T06:19:20;99828.50;;;15.87;52.41
26487;BME280;14425;56.136;40.360;2023-06-22T06:21:46;99824.28;;;15.94;51.96
26487;BME280;14425;56.136;40.360;2023-06-22T06:24:11;99838.00;;;15.83;52.01
26487;BME280;14425;56.136;40.360;2023-06-22T06:26:37;99819.00;;;15.86;53.94
26487;BME280;14425;56.136;40.360;2023-06-22T06:29:03;99826.47;;;15.69;52.79
26487;BME280;14425;56.136;40.360;2023-06-22T06:31:28;99828.13;;;15.65;54.67
26487;BME280;14425;56.136;40.360;2023-06-22T06:33:54;99836.78;;;15.64;53.55
26487;BME280;14425;56.136;40.360;2023-06-22T06:36:20;99829.97;;;15.71;54.33
26487;BME280;14425;56.136;40.360;2023-06-22T06:38:46;99827.28;;;15.66;53.35
26487;BME280;14425;56.136;40.360;2023-06-22T06:41:15;99816.91;;;15.68;53.16
26487;BME280;14425;56.136;40.360;2023-06-22T06:43:41;99812.94;;;15.88;53.07
26487;BME280;14425;56.136;40.360;2023-06-22T06:46:10;99806.28;;;16.04;51.62
26487;BME280;14425;56.136;40.360;2023-06-22T06:48:36;99806.53;;;16.21;51.95
26487;BME280;14425;56.136;40.360;2023-06-22T06:51:02;99813.50;;;16.22;51.96
26487;BME280;14425;56.136;40.360;2023-06-22T06:53:27;99807.91;;;15.98;51.52
26487;BME280;14425;56.136;40.360;2023-06-22T06:55:54;99813.16;;;16.01;50.93
26487;BME280;14425;56.136;40.360;2023-06-22T06:58:20;99818.31;;;15.98;52.19
26487;BME280;14425;56.136;40.360;2023-06-22T07:00:45;99810.97;;;16.30;51.71
26487;BME280;14425;56.136;40.360;2023-06-22T07:03:11;99815.53;;;16.45;51.94
26487;BME280;14425;56.136;40.360;2023-06-22T07:05:36;99812.25;;;16.58;52.68
26487;BME280;14425;56.136;40.360;2023-06-22T07:08:02;99814.31;;;16.83;51.12
26487;BME280;14425;56.136;40.360;2023-06-22T07:10:28;99801.63;;;17.07;50.16
26487;BME280;14425;56.136;40.360;2023-06-22T07:12:54;99816.16;;;17.69;49.57
26487;BME280;14425;56.136;40.360;2023-06-22T07:15:19;99817.75;;;17.53;49.04
26487;BME280;14425;56.136;40.360;2023-06-22T07:17:45;99810.06;;;17.69;49.79
26487;BME280;14425;56.136;40.360;2023-06-22T07:20:11;99815.28;;;17.67;50.34
26487;BME280;14425;56.136;40.360;2023-06-22T07:22:38;99812.78;;;17.78;49.93
26487;BME280;14425;56.136;40.360;2023-06-22T07:25:05;99822.91;;;17.49;51.07
26487;BME280;14425;56.136;40.360;2023-06-22T07:30:22;99818.47;;;16.70;50.08
26487;BME280;14425;56.136;40.360;2023-06-22T07:32:47;99812.34;;;16.65;51.39
26487;BME280;14425;56.136;40.360;2023-06-22T07:35:13;99818.97;;;16.41;51.26
26487;BME280;14425;56.136;40.360;2023-06-22T07:37:38;99817.41;;;16.52;52.49
26487;BME280;14425;56.136;40.360;2023-06-22T07:40:05;99820.97;;;16.60;50.67
26487;BME280;14425;56.136;40.360;2023-06-22T07:42:31;99814.06;;;16.62;51.10
26487;BME280;14425;56.136;40.360;2023-06-22T07:44:58;99828.44;;;16.36;49.92
26487;BME280;14425;56.136;40.360;2023-06-22T07:47:24;99835.25;;;16.28;50.71
26487;BME280;14425;56.136;40.360;2023-06-22T07:49:51;99829.22;;;16.32;51.87
26487;BME280;14425;56.136;40.360;2023-06-22T07:52:20;99840.97;;;16.06;50.51
26487;BME280;14425;56.136;40.360;2023-06-22T07:54:46;99843.47;;;15.99;50.94
26487;BME280;14425;56.136;40.360;2023-06-22T07:57:12;99845.44;;;16.12;52.05
26487;BME280;14425;56.136;40.360;2023-06-22T07:59:37;99844.72;;;16.22;50.14
26487;BME280;14425;56.136;40.360;2023-06-22T08:02:04;99838.97;;;16.43;51.56
26487;BME280;14425;56.136;40.360;2023-06-22T08:04:30;99840.56;;;16.37;50.66
26487;BME280;14425;56.136;40.360;2023-06-22T08:07:00;99841.38;;;16.31;50.91
26487;BME280;14425;56.136;40.360;2023-06-22T08:09:28;99836.97;;;16.25;50.95
26487;BME280;14425;56.136;40.360;2023-06-22T08:11:54;99839.47;;;16.19;50.29
26487;BME280;14425;56.136;40.360;2023-06-22T08:14:20;99821.16;;;16.15;50.48
26487;BME280;14425;56.136;40.360;2023-06-22T08:16:46;99811.84;;;16.28;50.37
26487;BME280;14425;56.136;40.360;2023-06-22T08:19:12;99814.06;;;16.03;50.69
26487;BME280;14425;56.136;40.360;2023-06-22T08:21:37;99808.97;;;16.11;51.73
26487;BME280;14425;56.136;40.360;2023-06-22T08:24:03;99809.13;;;16.21;52.57
26487;BME280;14425;56.136;40.360;2023-06-22T08:26:29;99795.22;;;16.19;51.79
26487;BME280;14425;56.136;40.360;2023-06-22T08:28:54;99790.78;;;16.12;52.11
26487;BME280;14425;56.136;40.360;2023-06-22T08:31:20;99791.22;;;16.43;51.64
26487;BME280;14425;56.136;40.360;2023-06-22T08:33:46;99799.97;;;16.48;51.04
26487;BME280;14425;56.136;40.360;2023-06-22T08:36:12;99789.66;;;16.54;50.95
26487;BME280;14425;56.136;40.360;2023-06-22T08:38:39;99787.38;;;16.79;51.82
26487;BME280;14425;56.136;40.360;2023-06-22T08:41:04;99791.19;;;16.41;52.29
26487;BME280;14425;56.136;40.360;2023-06-22T08:43:30;99801.34;;;16.23;52.90
26487;BME280;14425;56.136;40.360;2023-06-22T08:45:55;99796.47;;;16.46;52.54
26487;BME280;14425;56.136;40.360;2023-06-22T08:48:21;99789.88;;;16.10;52.25
26487;BME280;14425;56.136;40.360;2023-06-22T08:50:47;99783.59;;;15.96;53.20
26487;BME280;14425;56.136;40.360;2023-06-22T08:53:12;99788.78;;;15.94;54.47
26487;BME280;14425;56.136;40.360;2023-06-22T08:55:38;99779.09;;;15.84;54.30
26487;BME280;14425;56.136;40.360;2023-06-22T08:58:03;99788.38;;;15.71;54.70
26487;BME280;14425;56.136;40.360;2023-06-22T09:00:29;99792.47;;;15.58;54.89
26487;BME280;14425;56.136;40.360;2023-06-22T09:02:58;99799.53;;;15.64;55.28
26487;BME280;14425;56.136;40.360;2023-06-22T09:05:24;99798.47;;;15.54;54.93
26487;BME280;14425;56.136;40.360;2023-06-22T09:07:51;99804.03;;;15.74;56.30
26487;BME280;14425;56.136;40.360;2023-06-22T09:10:17;99803.63;;;16.01;56.09
26487;BME280;14425;56.136;40.360;2023-06-22T09:12:44;99805.13;;;16.42;57.14
26487;BME280;14425;56.136;40.360;2023-06-22T09:15:10;99794.69;;;16.40;54.72
26487;BME280;14425;56.136;40.360;2023-06-22T09:17:35;99795.50;;;16.38;56.38
26487;BME280;14425;56.136;40.360;2023-06-22T09:20:02;99794.75;;;16.48;57.17
26487;BME280;14425;56.136;40.360;2023-06-22T09:22:32;99803.41;;;16.44;56.40
26487;BME280;14425;56.136;40.360;2023-06-22T09:24:58;99790.81;;;16.14;56.70
26487;BME280;14425;56.136;40.360;2023-06-22T09:27:25;99804.81;;;16.22;57.92
26487;BME280;14425;56.136;40.360;2023-06-22T09:29:50;99809.50;;;16.48;59.92
26487;BME280;14425;56.136;40.360;2023-06-22T09:32:16;99821.66;;;16.46;57.68
26487;BME280;14425;56.136;40.360;2023-06-22T09:34:41;99821.69;;;15.94;57.58
26487;BME280;14425;56.136;40.360;2023-06-22T09:37:07;99814.88;;;15.51;58.36
26487;BME280;14425;56.136;40.360;2023-06-22T09:39:32;99804.50;;;16.00;60.75
26487;BME280;14425;56.136;40.360;2023-06-22T09:41:59;99788.69;;;15.89;58.94
26487;BME280;14425;56.136;40.360;2023-06-22T09:44:28;99789.91;;;16.13;62.79
26487;BME280;14425;56.136;40.360;2023-06-22T09:46:53;99791.84;;;16.25;62.21
26487;BME280;14425;56.136;40.360;2023-06-22T09:49:19;99790.97;;;16.24;62.24
26487;BME280;14425;56.136;40.360;2023-06-22T09:51:44;99802.53;;;15.88;61.63
26487;BME280;14425;56.136;40.360;2023-06-22T09:54:10;99813.50;;;16.22;60.59
26487;BME280;14425;56.136;40.360;2023-06-22T09:56:36;99822.13;;;15.69;62.96
26487;BME280;14425;56.136;40.360;2023-06-22T09:59:03;99819.84;;;15.38;63.93
26487;BME280;14425;56.136;40.360;2023-06-22T10:01:28;99829.63;;;15.07;65.60
26487;BME280;14425;56.136;40.360;2023-06-22T10:03:55;99831.69;;;15.23;67.27
26487;BME280;14425;56.136;40.360;2023-06-22T10:06:22;99837.47;;;15.54;65.08
26487;BME280;14425;56.136;40.360;2023-06-22T10:08:49;99835.59;;;15.47;64.35
26487;BME280;14425;56.136;40.360;2023-06-22T10:11:15;99837.28;;;14.99;68.99
26487;BME280;14425;56.136;40.360;2023-06-22T10:13:41;99827.84;;;14.63;71.87
26487;BME280;14425;56.136;40.360;2023-06-22T10:16:06;99821.50;;;14.52;74.22
26487;BME280;14425;56.136;40.360;2023-06-22T10:18:32;99798.88;;;14.45;77.26
26487;BME280;14425;56.136;40.360;2023-06-22T10:20:57;99796.06;;;14.35;79.31
26487;BME280;14425;56.136;40.360;2023-06-22T10:23:24;99793.50;;;14.37;80.69
26487;BME280;14425;56.136;40.360;2023-06-22T10:25:50;99787.22;;;14.27;79.03
26487;BME280;14425;56.136;40.360;2023-06-22T10:28:16;99772.69;;;14.73;79.38
26487;BME280;14425;56.136;40.360;2023-06-22T10:30:42;99767.56;;;14.76;78.88
26487;BME280;14425;56.136;40.360;2023-06-22T10:33:08;99767.63;;;14.80;78.87
26487;BME280;14425;56.136;40.360;2023-06-22T10:35:35;99770.38;;;14.87;79.17
26487;BME280;14425;56.136;40.360;2023-06-22T10:38:03;99776.13;;;14.72;75.93
26487;BME280;14425;56.136;40.360;2023-06-22T10:40:28;99767.28;;;14.64;77.33
26487;BME280;14425;56.136;40.360;2023-06-22T10:42:54;99769.88;;;14.63;78.75
26487;BME280;14425;56.136;40.360;2023-06-22T10:45:19;99779.41;;;14.64;77.69
26487;BME280;14425;56.136;40.360;2023-06-22T10:47:45;99781.13;;;14.63;75.64
26487;BME280;14425;56.136;40.360;2023-06-22T10:50:11;99777.88;;;14.73;76.98
26487;BME280;14425;56.136;40.360;2023-06-22T10:52:37;99766.94;;;14.88;78.80
26487;BME280;14425;56.136;40.360;2023-06-22T10:55:03;99759.38;;;14.58;77.08
26487;BME280;14425;56.136;40.360;2023-06-22T10:57:31;99754.06;;;14.53;80.31
26487;BME280;14425;56.136;40.360;2023-06-22T10:59:56;99752.00;;;14.37;78.71
26487;BME280;14425;56.136;40.360;2023-06-22T11:02:23;99754.66;;;14.40;81.58
26487;BME280;14425;56.136;40.360;2023-06-22T11:04:50;99761.75;;;14.49;83.00
26487;BME280;14425;56.136;40.360;2023-06-22T11:07:16;99765.53;;;14.62;83.73
26487;BME280;14425;56.136;40.360;2023-06-22T11:09:44;99766.69;;;14.76;82.44
26487;BME280;14425;56.136;40.360;2023-06-22T11:12:10;99758.13;;;14.80;86.22
26487;BME280;14425;56.136;40.360;2023-06-22T11:14:36;99766.69;;;14.76;79.67
26487;BME280;14425;56.136;40.360;2023-06-22T11:17:01;99762.09;;;14.63;79.33
26487;BME280;14425;56.136;40.360;2023-06-22T11:19:27;99763.72;;;14.59;80.82
26487;BME280;14425;56.136;40.360;2023-06-22T11:21:53;99763.59;;;14.53;82.02
26487;BME280;14425;56.136;40.360;2023-06-22T11:24:18;99767.09;;;14.55;79.41
26487;BME280;14425;56.136;40.360;2023-06-22T11:26:44;99771.44;;;14.56;79.87
26487;BME280;14425;56.136;40.360;2023-06-22T11:29:09;99776.09;;;14.69;80.76
26487;BME280;14425;56.136;40.360;2023-06-22T11:31:35;99773.97;;;14.94;82.93
26487;BME280;14425;56.136;40.360;2023-06-22T11:34:01;99764.25;;;14.84;77.42
26487;BME280;14425;56.136;40.360;2023-06-22T11:36:29;99776.59;;;14.95;82.76
26487;BME280;14425;56.136;40.360;2023-06-22T11:38:55;99776.38;;;14.85;80.71
26487;BME280;14425;56.136;40.360;2023-06-22T11:41:20;99767.72;;;14.86;79.44
26487;BME280;14425;56.136;40.360;2023-06-22T11:43:46;99778.03;;;14.80;80.16
26487;BME280;14425;56.136;40.360;2023-06-22T11:46:11;99788.97;;;14.65;79.38
26487;BME280;14425;56.136;40.360;2023-06-22T11:48:37;99779.38;;;14.62;78.88
26487;BME280;14425;56.136;40.360;2023-06-22T11:51:03;99776.63;;;14.57;80.96
26487;BME280;14425;56.136;40.360;2023-06-22T11:53:29;99777.66;;;14.61;82.04
26487;BME280;14425;56.136;40.360;2023-06-22T11:55:55;99768.78;;;14.53;83.88
26487;BME280;14425;56.136;40.360;2023-06-22T11:58:21;99777.19;;;14.42;87.17
26487;BME280;14425;56.136;40.360;2023-06-22T12:00:47;99782.19;;;14.33;90.28
26487;BME280;14425;56.136;40.360;2023-06-22T12:03:13;99757.03;;;14.31;91.09
26487;BME280;14425;56.136;40.360;2023-06-22T12:05:40;99739.47;;;14.17;94.00
26487;BME280;14425;56.136;40.360;2023-06-22T12:08:06;99739.22;;;14.07;94.54
26487;BME280;14425;56.136;40.360;2023-06-22T12:10:32;99724.44;;;14.02;97.83
26487;BME280;14425;56.136;40.360;2023-06-22T12:12:57;99714.72;;;13.94;100.00
26487;BME280;14425;56.136;40.360;2023-06-22T12:15:26;99708.78;;;13.99;100.00
26487;BME280;14425;56.136;40.360;2023-06-22T12:17:51;99713.44;;;13.75;99.09
26487;BME280;14425;56.136;40.360;2023-06-22T12:20:17;99702.63;;;13.56;100.00
26487;BME280;14425;56.136;40.360;2023-06-22T12:22:44;99688.81;;;13.57;100.00
26487;BME280;14425;56.136;40.360;2023-06-22T12:25:10;99701.88;;;13.60;100.00
26487;BME280;14425;56.136;40.360;2023-06-22T12:27:36;99697.16;;;13.44;100.00
26487;BME280;14425;56.136;40.360;2023-06-22T12:30:03;99692.63;;;13.35;100.00
26487;BME280;14425;56.136;40.360;2023-06-22T12:32:32;99696.06;;;13.36;100.00
26487;BME280;14425;56.136;40.360;2023-06-22T12:34:57;99703.09;;;13.40;100.00
26487;BME280;14425;56.136;40.360;2023-06-22T12:37:23;99702.19;;;13.39;100.00
26487;BME280;14425;56.136;40.360;2023-06-22T12:39:49;99697.88;;;13.38;100.00
26487;BME280;14425;56.136;40.360;2023-06-22T12:42:15;99696.19;;;13.40;100.00
26487;BME280;14425;56.136;40.360;2023-06-22T12:44:42;99684.91;;;13.37;100.00
26487;BME280;14425;56.136;40.360;2023-06-22T12:47:08;99676.03;;;13.28;100.00
26487;BME280;14425;56.136;40.360;2023-06-22T12:49:37;99671.66;;;13.27;100.00
26487;BME280;14425;56.136;40.360;2023-06-22T12:52:03;99676.19;;;13.33;100.00
26487;BME280;14425;56.136;40.360;2023-06-22T12:54:29;99667.09;;;13.17;100.00
26487;BME280;14425;56.136;40.360;2023-06-22T12:56:55;99677.25;;;13.09;100.00
26487;BME280;14425;56.136;40.360;2023-06-22T12:59:21;99665.38;;;13.18;100.00
26487;BME280;14425;56.136;40.360;2023-06-22T13:01:47;99655.63;;;13.07;100.00
26487;BME280;14425;56.136;40.360;2023-06-22T13:04:12;99654.75;;;13.07;100.00
26487;BME280;14425;56.136;40.360;2023-06-22T13:06:43;99658.19;;;13.06;100.00
26487;BME280;14425;56.136;40.360;2023-06-22T13:09:13;99654.84;;;13.10;100.00
26487;BME280;14425;56.136;40.360;2023-06-22T13:11:39;99653.91;;;13.08;100.00
26487;BME280;14425;56.136;40.360;2023-06-22T13:14:04;99662.44;;;13.04;100.00